Time;durP1;ratioP1;P1;durP2;ratioP2;P2;SDS_P1;SDS_P2;PMS_P1;PMS_P2;Temp;Humidity;BMP_temperature;BMP_pressure;BME280_temperature;BME280_humidity;BME280_pressure;Samples;Min_cycle;Max_cycle;Signal;HPM_P1;HPM_P2
2021/07/31 00:00:21;;;;;;;0.85;0.65;;;24.50;58.00;;;;;;5007540;28;20336;-40
2021/07/31 00:02:46;;;;;;;0.73;0.70;;;24.50;57.90;;;;;;4987797;28;20120;-40
2021/07/31 00:05:13;;;;;;;1.02;0.70;;;24.50;58.00;;;;;;5015000;28;20049;-38
2021/07/31 00:07:42;;;;;;;0.60;0.60;;;24.50;58.00;;;;;;5011027;28;20444;-36
2021/07/31 00:10:08;;;;;;;0.70;0.70;;;24.40;58.20;;;;;;4999126;28;20026;-39
2021/07/31 00:12:34;;;;;;;0.80;0.70;;;24.40;58.10;;;;;;5009052;28;20484;-38
2021/07/31 00:14:59;;;;;;;0.35;0.35;;;24.40;58.10;;;;;;5012615;28;20032;-45
2021/07/31 00:17:25;;;;;;;0.88;0.80;;;24.40;58.00;;;;;;5012938;28;20064;-41
2021/07/31 00:19:50;;;;;;;0.60;0.50;;;24.50;58.20;;;;;;5026848;28;20033;-46
2021/07/31 00:22:16;;;;;;;0.80;0.70;;;24.50;57.90;;;;;;5033347;28;20108;-44
2021/07/31 00:24:42;;;;;;;1.75;0.70;;;24.50;57.90;;;;;;5038278;28;20091;-47
2021/07/31 00:27:07;;;;;;;0.80;0.60;;;24.50;58.00;;;;;;5027942;28;20052;-44
2021/07/31 00:29:33;;;;;;;0.60;0.60;;;24.40;58.00;;;;;;5029870;28;20080;-45
2021/07/31 00:31:58;;;;;;;0.60;0.60;;;24.40;58.10;;;;;;5027702;28;20488;-45
2021/07/31 00:34:24;;;;;;;0.65;0.52;;;24.40;58.70;;;;;;5026957;28;20614;-45
2021/07/31 00:36:49;;;;;;;0.60;0.60;;;24.40;58.10;;;;;;5028676;28;20037;-46
2021/07/31 00:39:15;;;;;;;0.77;0.68;;;24.30;58.20;;;;;;5028249;28;20053;-50
2021/07/31 00:41:40;;;;;;;0.40;0.40;;;24.30;59.00;;;;;;5030837;28;20495;-45
2021/07/31 00:44:06;;;;;;;0.80;0.70;;;24.30;58.30;;;;;;5029057;28;20034;-46
2021/07/31 00:46:32;;;;;;;0.70;0.70;;;24.20;58.40;;;;;;5028209;28;20137;-42
2021/07/31 00:48:57;;;;;;;0.85;0.80;;;24.30;58.20;;;;;;5028244;28;20026;-41
2021/07/31 00:51:23;;;;;;;1.30;0.60;;;24.30;58.10;;;;;;5026825;28;20079;-43
2021/07/31 00:53:48;;;;;;;1.20;0.75;;;24.40;58.10;;;;;;5013063;28;20406;-40
2021/07/31 00:56:14;;;;;;;0.77;0.70;;;24.30;58.10;;;;;;5010575;28;20025;-41
2021/07/31 00:58:40;;;;;;;0.75;0.47;;;24.30;58.10;;;;;;5028870;28;20411;-39
2021/07/31 01:01:05;;;;;;;0.50;0.50;;;24.30;58.10;;;;;;5012161;28;20025;-39
2021/07/31 01:03:31;;;;;;;0.57;0.57;;;24.30;58.20;;;;;;5014907;28;20038;-38
2021/07/31 01:05:57;;;;;;;2.78;0.50;;;24.30;58.30;;;;;;5028722;28;20085;-39
2021/07/31 01:08:22;;;;;;;0.60;0.52;;;24.30;58.30;;;;;;5013160;28;20096;-41
2021/07/31 01:10:48;;;;;;;0.60;0.50;;;24.20;58.40;;;;;;5011615;28;20042;-42
2021/07/31 01:13:14;;;;;;;0.82;0.75;;;24.20;58.40;;;;;;5001788;28;20021;-40
2021/07/31 01:16:02;;;;;;;0.43;0.40;;;24.20;58.50;;;;;;5012389;28;20037;-37
2021/07/31 01:18:28;;;;;;;0.50;0.50;;;24.20;58.60;;;;;;5013312;28;20022;-40
2021/07/31 01:20:53;;;;;;;0.52;0.52;;;24.20;58.50;;;;;;5024264;28;20109;-34
2021/07/31 01:23:19;;;;;;;0.50;0.50;;;24.20;58.50;;;;;;5028911;28;20037;-38
2021/07/31 01:25:44;;;;;;;0.60;0.60;;;24.20;58.60;;;;;;5026296;28;20495;-38
2021/07/31 01:28:10;;;;;;;0.95;0.55;;;24.20;58.70;;;;;;5027125;28;20038;-41
2021/07/31 01:30:35;;;;;;;0.50;0.40;;;24.10;58.70;;;;;;5010448;28;20527;-40
2021/07/31 01:33:01;;;;;;;0.60;0.60;;;24.10;58.70;;;;;;5019924;28;20128;-38
2021/07/31 01:35:26;;;;;;;0.50;0.50;;;24.10;58.70;;;;;;5028594;28;20025;-38
2021/07/31 01:37:52;;;;;;;0.50;0.47;;;24.10;58.70;;;;;;5030584;28;20040;-40
2021/07/31 01:40:18;;;;;;;0.63;0.57;;;24.20;58.90;;;;;;5032943;28;20061;-37
2021/07/31 01:42:43;;;;;;;0.57;0.57;;;24.10;58.80;;;;;;5032627;28;20475;-40
2021/07/31 01:45:09;;;;;;;0.57;0.50;;;24.10;58.80;;;;;;5031575;28;20496;-38
2021/07/31 01:47:35;;;;;;;0.60;0.60;;;24.10;58.80;;;;;;5033444;28;20495;-38
2021/07/31 01:50:00;;;;;;;0.50;0.50;;;24.10;58.90;;;;;;5015631;28;20029;-41
2021/07/31 01:52:26;;;;;;;0.52;0.50;;;24.10;58.80;;;;;;5032096;28;20076;-40
2021/07/31 01:54:52;;;;;;;0.75;0.68;;;24.10;59.00;;;;;;5030552;28;20539;-40
2021/07/31 01:57:17;;;;;;;0.45;0.45;;;24.10;59.00;;;;;;5029632;28;20026;-37
2021/07/31 01:59:43;;;;;;;0.60;0.60;;;24.10;59.00;;;;;;5034558;28;20128;-40
2021/07/31 02:02:09;;;;;;;0.52;0.52;;;24.10;59.00;;;;;;5032150;28;20566;-38
2021/07/31 02:04:34;;;;;;;0.57;0.57;;;24.10;58.90;;;;;;5029500;28;20045;-40
2021/07/31 02:07:01;;;;;;;0.50;0.50;;;24.00;59.50;;;;;;5029178;28;20063;-40
2021/07/31 02:09:27;;;;;;;0.80;0.68;;;24.10;58.60;;;;;;5031961;28;20076;-38
2021/07/31 02:11:53;;;;;;;0.50;0.47;;;24.00;59.10;;;;;;5032247;28;20112;-40
2021/07/31 02:14:18;;;;;;;0.60;0.60;;;24.00;59.70;;;;;;5030081;28;20495;-38
2021/07/31 02:16:44;;;;;;;0.50;0.50;;;24.00;59.00;;;;;;5029438;28;20029;-40
2021/07/31 02:19:09;;;;;;;0.43;0.43;;;24.00;59.00;;;;;;5029534;28;20033;-38
2021/07/31 02:21:35;;;;;;;0.80;0.63;;;24.00;59.10;;;;;;5030025;28;20037;-40
2021/07/31 02:24:01;;;;;;;0.50;0.50;;;24.00;59.10;;;;;;5032632;28;20484;-39
2021/07/31 02:26:26;;;;;;;0.50;0.50;;;24.00;59.80;;;;;;5030707;28;20037;-40
2021/07/31 02:28:52;;;;;;;0.65;0.40;;;24.00;59.20;;;;;;5031297;28;20053;-40
2021/07/31 02:31:17;;;;;;;0.50;0.43;;;24.00;59.10;;;;;;5029010;28;20026;-40
2021/07/31 02:33:43;;;;;;;0.75;0.75;;;24.00;59.20;;;;;;5029034;28;20029;-38
2021/07/31 02:36:09;;;;;;;0.75;0.63;;;24.00;59.30;;;;;;5029845;28;20530;-38
2021/07/31 02:38:35;;;;;;;0.40;0.40;;;23.90;59.80;;;;;;5032772;28;20031;-40
2021/07/31 02:41:00;;;;;;;0.45;0.45;;;24.00;59.20;;;;;;5029873;28;20029;-39
2021/07/31 02:43:26;;;;;;;0.40;0.40;;;24.00;59.20;;;;;;5011771;28;20408;-39
2021/07/31 02:45:52;;;;;;;0.98;0.68;;;24.00;59.30;;;;;;5027979;28;20029;-37
2021/07/31 02:48:17;;;;;;;0.52;0.50;;;23.90;59.20;;;;;;5028575;28;20423;-40
2021/07/31 02:50:43;;;;;;;0.88;0.65;;;24.00;59.30;;;;;;5029701;28;20095;-39
2021/07/31 02:53:08;;;;;;;0.50;0.45;;;24.00;59.30;;;;;;5029420;28;20030;-37
2021/07/31 02:55:34;;;;;;;0.55;0.55;;;24.00;59.30;;;;;;5011288;28;20506;-40
2021/07/31 02:57:59;;;;;;;0.40;0.40;;;23.90;59.30;;;;;;5030417;28;20033;-40
2021/07/31 03:00:25;;;;;;;0.57;0.57;;;23.90;59.40;;;;;;5031050;28;20032;-40
2021/07/31 03:02:51;;;;;;;0.55;0.55;;;23.90;59.30;;;;;;5032526;28;20045;-38
2021/07/31 03:05:16;;;;;;;0.77;0.50;;;24.00;59.40;;;;;;5029600;28;20052;-38
2021/07/31 03:07:42;;;;;;;0.55;0.55;;;23.90;59.40;;;;;;5030221;28;20164;-44
2021/07/31 03:10:08;;;;;;;0.65;0.65;;;23.90;59.30;;;;;;5028382;28;20057;-40
2021/07/31 03:12:34;;;;;;;0.65;0.65;;;24.00;59.30;;;;;;5028996;28;20714;-40
2021/07/31 03:14:59;;;;;;;0.40;0.40;;;23.90;59.30;;;;;;5022141;28;20547;-38
2021/07/31 03:17:26;;;;;;;0.50;0.50;;;23.90;59.40;;;;;;5026309;28;20487;-40
2021/07/31 03:19:52;;;;;;;0.63;0.63;;;23.90;59.40;;;;;;5028159;28;20113;-38
2021/07/31 03:22:17;;;;;;;0.50;0.50;;;23.90;59.40;;;;;;5014078;28;20104;-37
2021/07/31 03:24:43;;;;;;;0.80;0.80;;;23.90;59.40;;;;;;5028892;28;20407;-40
2021/07/31 03:27:09;;;;;;;0.70;0.70;;;23.90;59.40;;;;;;5029451;28;20559;-40
2021/07/31 03:29:34;;;;;;;0.57;0.57;;;23.90;59.40;;;;;;4999962;28;20030;-40
2021/07/31 03:32:00;;;;;;;0.90;0.80;;;23.90;59.40;;;;;;5026567;28;20120;-40
2021/07/31 03:34:26;;;;;;;0.70;0.70;;;23.90;59.40;;;;;;5028016;28;20025;-39
2021/07/31 03:36:51;;;;;;;0.70;0.70;;;23.90;59.40;;;;;;5027756;28;20406;-43
2021/07/31 03:39:21;;;;;;;0.60;0.60;;;23.90;59.40;;;;;;5030328;28;20032;-44
2021/07/31 03:41:46;;;;;;;0.70;0.50;;;23.90;59.40;;;;;;5028726;28;20032;-44
2021/07/31 03:44:12;;;;;;;0.47;0.47;;;23.90;60.20;;;;;;5028261;28;20030;-45
2021/07/31 03:46:42;;;;;;;0.65;0.65;;;23.90;59.50;;;;;;5028270;28;20041;-44
2021/07/31 03:49:08;;;;;;;0.68;0.65;;;23.90;59.60;;;;;;5029774;28;20021;-43
2021/07/31 03:51:33;;;;;;;0.60;0.60;;;23.90;59.50;;;;;;5027663;28;20170;-42
2021/07/31 03:53:59;;;;;;;0.60;0.55;;;23.90;59.50;;;;;;5030264;28;20026;-42
2021/07/31 03:56:24;;;;;;;0.47;0.47;;;23.90;59.50;;;;;;5031372;28;20040;-44
2021/07/31 03:58:50;;;;;;;0.60;0.60;;;23.90;59.50;;;;;;5028564;28;20034;-43
2021/07/31 04:01:23;;;;;;;0.70;0.70;;;23.90;59.50;;;;;;5027156;28;20060;-43
2021/07/31 04:03:49;;;;;;;0.50;0.50;;;23.90;59.50;;;;;;5028230;28;20040;-43
2021/07/31 04:06:15;;;;;;;0.82;0.50;;;23.80;59.90;;;;;;5011586;28;20069;-38
2021/07/31 04:08:40;;;;;;;0.88;0.82;;;23.70;60.00;;;;;;5031751;28;20119;-41
2021/07/31 04:11:06;;;;;;;0.35;0.32;;;23.70;60.10;;;;;;5028451;28;20030;-42
2021/07/31 04:13:31;;;;;;;0.50;0.50;;;23.80;59.80;;;;;;5022437;28;20152;-38
2021/07/31 04:15:57;;;;;;;0.70;0.70;;;23.80;59.70;;;;;;5019904;28;20037;-39
2021/07/31 04:18:23;;;;;;;0.85;0.85;;;23.80;59.70;;;;;;5027611;28;20021;-39
2021/07/31 04:20:48;;;;;;;1.27;0.75;;;23.80;59.60;;;;;;5031194;28;20597;-38
2021/07/31 04:23:14;;;;;;;0.60;0.60;;;23.80;59.70;;;;;;5027615;28;20044;-40
2021/07/31 04:25:39;;;;;;;0.82;0.60;;;23.80;59.60;;;;;;5027465;28;20404;-38
2021/07/31 04:28:05;;;;;;;0.47;0.47;;;23.80;59.60;;;;;;5027173;28;20025;-38
2021/07/31 04:30:32;;;;;;;0.70;0.50;;;23.80;59.70;;;;;;5029400;28;20037;-38
2021/07/31 04:32:57;;;;;;;0.52;0.52;;;23.80;59.70;;;;;;5030193;28;20033;-38
2021/07/31 04:35:23;;;;;;;1.38;0.70;;;23.80;59.70;;;;;;5029562;28;20024;-38
2021/07/31 04:37:49;;;;;;;0.80;0.70;;;23.80;59.50;;;;;;5027105;28;20557;-37
2021/07/31 04:40:14;;;;;;;2.05;0.63;;;23.80;59.50;;;;;;5027125;28;20087;-37
2021/07/31 04:42:40;;;;;;;1.33;0.52;;;23.80;59.50;;;;;;5026604;28;20037;-40
2021/07/31 04:45:06;;;;;;;0.70;0.50;;;23.80;59.50;;;;;;5025510;28;20022;-40
2021/07/31 04:47:41;;;;;;;0.73;0.52;;;23.80;59.40;;;;;;5016054;28;20033;-38
2021/07/31 04:50:09;;;;;;;1.92;0.70;;;23.80;59.50;;;;;;5027056;28;20113;-40
2021/07/31 04:52:34;;;;;;;1.02;0.63;;;23.80;59.40;;;;;;5026515;28;20036;-38
2021/07/31 04:55:00;;;;;;;0.57;0.57;;;23.80;59.40;;;;;;5026723;28;20438;-37
2021/07/31 04:57:25;;;;;;;0.82;0.57;;;23.80;59.50;;;;;;5026420;28;20388;-40
2021/07/31 04:59:51;;;;;;;0.68;0.68;;;23.80;59.60;;;;;;5030383;28;20037;-38
2021/07/31 05:02:17;;;;;;;0.63;0.60;;;23.80;59.50;;;;;;5028729;28;20106;-38
2021/07/31 05:04:42;;;;;;;0.85;0.40;;;23.70;59.50;;;;;;5027112;28;20053;-38
2021/07/31 05:07:08;;;;;;;0.80;0.63;;;23.80;59.50;;;;;;5028880;28;20084;-39
2021/07/31 05:09:34;;;;;;;0.85;0.77;;;23.80;59.40;;;;;;5026675;28;20048;-40
2021/07/31 05:11:59;;;;;;;0.60;0.45;;;23.70;59.50;;;;;;5029445;28;20037;-37
2021/07/31 05:14:26;;;;;;;0.80;0.70;;;23.80;59.40;;;;;;5032642;28;20022;-39
2021/07/31 05:16:52;;;;;;;0.57;0.57;;;23.80;59.40;;;;;;5031243;28;20176;-39
2021/07/31 05:19:17;;;;;;;0.70;0.70;;;23.80;59.40;;;;;;5031662;28;20527;-39
2021/07/31 05:21:43;;;;;;;0.60;0.60;;;23.80;59.30;;;;;;5030075;28;20494;-39
2021/07/31 05:24:08;;;;;;;0.47;0.47;;;23.80;59.30;;;;;;5032700;28;20070;-40
2021/07/31 05:26:38;;;;;;;0.57;0.50;;;23.70;59.50;;;;;;5033251;28;20045;-40
2021/07/31 05:29:05;;;;;;;1.00;0.60;;;23.70;59.60;;;;;;5030986;28;20400;-38
2021/07/31 05:31:30;;;;;;;0.65;0.60;;;23.70;60.30;;;;;;5032073;28;20041;-35
2021/07/31 05:33:56;;;;;;;0.70;0.63;;;23.70;59.50;;;;;;5040947;28;20026;-38
2021/07/31 05:36:22;;;;;;;1.13;0.80;;;23.80;59.40;;;;;;5032431;28;20912;-37
2021/07/31 05:38:48;;;;;;;0.75;0.50;;;23.80;59.40;;;;;;5032827;28;20029;-39
2021/07/31 05:41:17;;;;;;;0.63;0.60;;;23.80;59.40;;;;;;5025570;28;20113;-33
2021/07/31 05:43:43;;;;;;;0.70;0.70;;;23.70;59.40;;;;;;5024709;28;20022;-38
2021/07/31 05:46:09;;;;;;;0.47;0.47;;;23.70;59.50;;;;;;5030112;28;20063;-39
2021/07/31 05:48:35;;;;;;;0.60;0.50;;;23.70;59.40;;;;;;5033198;28;20093;-36
2021/07/31 05:51:01;;;;;;;1.05;0.60;;;23.70;59.50;;;;;;5044131;28;20407;-41
2021/07/31 05:53:27;;;;;;;1.00;0.90;;;23.70;59.40;;;;;;5025734;28;20029;-38
2021/07/31 05:55:52;;;;;;;0.70;0.60;;;23.70;59.50;;;;;;5026798;28;20084;-39
2021/07/31 05:58:18;;;;;;;0.90;0.75;;;23.60;59.50;;;;;;5026628;28;20029;-38
2021/07/31 06:00:44;;;;;;;1.00;0.80;;;23.70;59.40;;;;;;5024533;28;20495;-38
2021/07/31 06:03:09;;;;;;;0.80;0.70;;;23.70;59.50;;;;;;5027287;28;20091;-37
2021/07/31 06:05:35;;;;;;;0.80;0.80;;;23.60;59.50;;;;;;5026409;28;20042;-39
2021/07/31 06:08:00;;;;;;;0.80;0.52;;;23.70;59.60;;;;;;5027534;28;20634;-39
2021/07/31 06:10:26;;;;;;;0.65;0.60;;;23.60;59.50;;;;;;5033606;28;20431;-40
2021/07/31 06:12:51;;;;;;;1.95;0.50;;;23.60;59.50;;;;;;5041548;28;20120;-40
2021/07/31 06:15:17;;;;;;;0.70;0.70;;;23.70;59.60;;;;;;5025533;28;20080;-39
2021/07/31 06:17:43;;;;;;;0.80;0.70;;;23.70;59.40;;;;;;5030098;28;20028;-38
2021/07/31 06:20:09;;;;;;;2.25;0.70;;;23.60;59.70;;;;;;5026245;28;20216;-37
2021/07/31 06:22:35;;;;;;;1.42;0.63;;;23.50;60.00;;;;;;5029341;28;20511;-37
2021/07/31 06:25:01;;;;;;;0.73;0.60;;;23.50;60.00;;;;;;5029092;28;20041;-37
2021/07/31 06:27:26;;;;;;;1.45;0.63;;;23.50;60.20;;;;;;5021565;28;20033;-43
2021/07/31 06:29:52;;;;;;;0.60;0.60;;;23.40;60.10;;;;;;5021950;28;20028;-40
2021/07/31 06:32:17;;;;;;;0.70;0.60;;;23.50;60.30;;;;;;5020767;28;20022;-37
2021/07/31 06:34:43;;;;;;;0.60;0.60;;;23.40;60.00;;;;;;5019383;28;20061;-42
2021/07/31 06:37:09;;;;;;;0.98;0.60;;;23.40;60.50;;;;;;5018303;28;20036;-37
2021/07/31 06:39:34;;;;;;;1.08;0.85;;;23.50;59.60;;;;;;5024076;28;20057;-40
2021/07/31 06:42:00;;;;;;;1.08;0.88;;;23.40;59.30;;;;;;5027869;28;20120;-37
2021/07/31 06:44:25;;;;;;;3.28;0.88;;;23.40;59.20;;;;;;5027277;28;20109;-36
2021/07/31 06:46:51;;;;;;;1.95;0.90;;;23.40;59.50;;;;;;5027182;28;20119;-38
2021/07/31 06:49:16;;;;;;;2.33;0.80;;;23.40;58.70;;;;;;5024635;28;20036;-40
2021/07/31 06:51:42;;;;;;;1.08;0.80;;;23.40;58.70;;;;;;5026412;28;20029;-40
2021/07/31 06:54:08;;;;;;;0.75;0.55;;;23.40;58.60;;;;;;5023595;28;20563;-36
2021/07/31 06:56:35;;;;;;;0.82;0.70;;;23.40;58.90;;;;;;5012875;28;20037;-41
2021/07/31 06:59:01;;;;;;;1.00;0.77;;;23.40;58.80;;;;;;5011558;28;20105;-37
2021/07/31 07:01:27;;;;;;;0.95;0.70;;;23.40;59.10;;;;;;5016717;28;20507;-42
2021/07/31 07:03:52;;;;;;;1.05;0.70;;;23.40;59.80;;;;;;5014118;28;20069;-47
2021/07/31 07:06:18;;;;;;;1.45;0.85;;;23.40;58.80;;;;;;5016810;28;20060;-44
2021/07/31 07:08:44;;;;;;;1.73;0.98;;;23.40;58.80;;;;;;5000614;28;20022;-44
2021/07/31 07:11:12;;;;;;;1.42;0.93;;;23.40;58.60;;;;;;5015746;28;20408;-49
2021/07/31 07:13:38;;;;;;;1.67;0.90;;;23.40;59.30;;;;;;5018186;28;20511;-45
2021/07/31 07:16:04;;;;;;;1.13;0.95;;;23.40;58.30;;;;;;5017489;28;20026;-42
2021/07/31 07:18:30;;;;;;;1.00;0.82;;;23.40;58.40;;;;;;5015323;28;20044;-39
2021/07/31 07:20:55;;;;;;;1.92;0.60;;;23.50;58.50;;;;;;5017180;28;20094;-40
2021/07/31 07:23:21;;;;;;;1.33;0.88;;;23.50;59.00;;;;;;5016328;28;20033;-37
2021/07/31 07:25:46;;;;;;;1.08;0.88;;;23.50;59.10;;;;;;5017451;28;20505;-40
2021/07/31 07:28:12;;;;;;;2.45;0.90;;;23.50;58.60;;;;;;5016216;28;20381;-39
2021/07/31 07:30:37;;;;;;;1.65;0.80;;;23.50;58.40;;;;;;5014101;28;20071;-40
2021/07/31 07:33:03;;;;;;;0.88;0.85;;;23.40;58.60;;;;;;5014055;28;20033;-39
2021/07/31 07:35:32;;;;;;;1.88;1.00;;;23.50;58.30;;;;;;5015894;28;20037;-41
2021/07/31 07:37:58;;;;;;;0.70;0.70;;;23.50;57.90;;;;;;5016583;28;20064;-43
2021/07/31 07:40:23;;;;;;;0.90;0.73;;;23.50;58.60;;;;;;5013519;28;20030;-43
2021/07/31 07:42:50;;;;;;;1.45;1.02;;;23.50;58.30;;;;;;5017006;28;20380;-38
2021/07/31 07:45:15;;;;;;;1.15;0.75;;;23.50;58.50;;;;;;5014193;28;20030;-45
2021/07/31 07:47:41;;;;;;;1.55;0.80;;;23.50;58.60;;;;;;5017200;28;20527;-44
2021/07/31 07:50:07;;;;;;;1.10;0.70;;;23.50;58.80;;;;;;5015600;28;20013;-41
2021/07/31 07:52:33;;;;;;;1.70;0.73;;;23.50;58.30;;;;;;5016817;28;20037;-41
2021/07/31 07:54:58;;;;;;;1.15;0.70;;;23.40;58.60;;;;;;4997984;28;20107;-41
2021/07/31 07:57:24;;;;;;;1.60;0.85;;;23.50;60.00;;;;;;5013919;28;20777;-41
2021/07/31 07:59:49;;;;;;;0.95;0.75;;;23.50;59.30;;;;;;5016757;28;20626;-40
2021/07/31 08:02:15;;;;;;;1.45;1.05;;;23.50;58.70;;;;;;5018423;28;20041;-38
2021/07/31 08:04:41;;;;;;;1.17;1.05;;;23.50;58.80;;;;;;5013526;28;20046;-42
2021/07/31 08:07:10;;;;;;;1.63;1.00;;;23.40;59.20;;;;;;5010955;28;20042;-51
2021/07/31 08:09:37;;;;;;;1.27;0.93;;;23.50;58.90;;;;;;5012383;28;20041;-49
2021/07/31 08:12:06;;;;;;;1.50;0.85;;;23.40;58.50;;;;;;5014921;28;20041;-52
2021/07/31 08:14:32;;;;;;;2.45;0.90;;;23.50;58.70;;;;;;5015772;28;20037;-43
2021/07/31 08:16:57;;;;;;;0.93;0.80;;;23.50;59.40;;;;;;5012328;28;20038;-41
2021/07/31 08:19:23;;;;;;;0.70;0.70;;;23.40;59.00;;;;;;5014258;28;20068;-41
2021/07/31 08:21:49;;;;;;;0.98;0.70;;;23.50;59.00;;;;;;5015377;28;20041;-38
2021/07/31 08:24:16;;;;;;;1.60;0.90;;;23.60;58.00;;;;;;5012704;28;20092;-37
2021/07/31 08:26:43;;;;;;;1.00;0.90;;;23.50;59.70;;;;;;5016567;28;20100;-40
2021/07/31 08:29:09;;;;;;;0.98;0.70;;;23.50;58.10;;;;;;5013648;28;20567;-38
2021/07/31 08:31:38;;;;;;;1.33;0.90;;;23.50;58.80;;;;;;5015109;28;20197;-37
2021/07/31 08:34:03;;;;;;;1.98;1.10;;;23.50;58.10;;;;;;5013640;28;20033;-39
2021/07/31 08:36:29;;;;;;;0.82;0.60;;;23.50;58.20;;;;;;5013242;28;20030;-36
2021/07/31 08:38:56;;;;;;;0.80;0.60;;;23.50;58.20;;;;;;5012329;28;20041;-37
2021/07/31 08:41:22;;;;;;;1.85;1.00;;;23.50;58.40;;;;;;5016623;28;20037;-39
2021/07/31 08:43:47;;;;;;;1.45;0.77;;;23.50;58.10;;;;;;5014779;28;20037;-39
2021/07/31 08:46:13;;;;;;;1.83;0.90;;;23.50;58.80;;;;;;4662370;28;10000364;-34
2021/07/31 08:48:39;;;;;;;0.80;0.70;;;23.50;58.30;;;;;;5016270;28;20037;-38
2021/07/31 08:51:05;;;;;;;1.13;0.77;;;23.50;58.10;;;;;;4996981;28;20030;-36
2021/07/31 08:53:31;;;;;;;0.73;0.70;;;23.50;58.50;;;;;;4994399;28;20045;-33
2021/07/31 08:55:57;;;;;;;1.25;0.90;;;23.50;58.30;;;;;;5008025;28;20034;-42
2021/07/31 08:58:25;;;;;;;2.28;0.88;;;23.60;58.20;;;;;;5008865;28;20029;-37
2021/07/31 09:00:53;;;;;;;1.30;0.80;;;23.60;58.20;;;;;;5014181;28;20026;-40
2021/07/31 09:03:19;;;;;;;1.00;0.70;;;23.60;58.80;;;;;;5012365;28;20061;-42
2021/07/31 09:05:45;;;;;;;1.42;0.70;;;23.60;58.70;;;;;;5012009;28;20155;-43
2021/07/31 09:08:10;;;;;;;1.35;0.70;;;23.60;58.60;;;;;;5017836;28;20053;-35
2021/07/31 09:10:38;;;;;;;0.95;0.77;;;23.70;58.40;;;;;;5015993;28;20067;-43
2021/07/31 09:13:05;;;;;;;1.10;0.80;;;23.80;58.80;;;;;;5015181;28;20038;-40
2021/07/31 09:15:40;;;;;;;1.10;0.73;;;24.00;58.50;;;;;;4999320;28;20036;-36
2021/07/31 09:18:26;;;;;;;1.65;0.98;;;24.00;58.60;;;;;;5016710;28;20037;-42
2021/07/31 09:21:06;;;;;;;1.70;0.93;;;24.00;58.30;;;;;;5016818;28;20112;-41
2021/07/31 09:23:45;;;;;;;1.08;0.77;;;24.10;58.00;;;;;;5016138;28;20528;-42
2021/07/31 09:26:14;;;;;;;1.50;0.77;;;24.00;58.40;;;;;;5012421;28;20041;-38
2021/07/31 09:28:42;;;;;;;1.13;0.65;;;24.10;58.40;;;;;;5013330;28;20042;-44
2021/07/31 09:31:09;;;;;;;1.38;0.77;;;24.20;58.50;;;;;;5010827;28;20044;-44
2021/07/31 09:33:35;;;;;;;1.08;0.98;;;24.10;58.30;;;;;;5011769;28;20492;-43
2021/07/31 09:36:02;;;;;;;0.95;0.80;;;24.10;58.40;;;;;;5011124;28;20036;-46
2021/07/31 09:38:41;;;;;;;1.05;0.70;;;24.20;58.50;;;;;;5010951;28;20040;-42
2021/07/31 09:41:25;;;;;;;1.45;1.00;;;24.20;58.60;;;;;;5012636;28;20075;-45
2021/07/31 09:44:07;;;;;;;1.15;0.93;;;24.20;59.30;;;;;;5010827;28;20033;-43
2021/07/31 09:46:49;;;;;;;1.23;0.70;;;24.20;58.80;;;;;;5011909;28;20457;-43
2021/07/31 09:49:16;;;;;;;1.58;0.90;;;24.20;59.00;;;;;;5010444;28;20600;-42
2021/07/31 09:51:43;;;;;;;2.33;0.70;;;24.20;59.00;;;;;;5016543;28;20042;-38
2021/07/31 09:54:10;;;;;;;3.75;1.35;;;24.20;58.70;;;;;;5018988;28;20033;-38
2021/07/31 09:56:42;;;;;;;0.88;0.73;;;24.20;58.60;;;;;;5028806;28;20037;-47
2021/07/31 09:59:09;;;;;;;2.72;0.70;;;24.20;59.50;;;;;;5026446;28;20120;-46
2021/07/31 10:01:36;;;;;;;1.65;0.88;;;24.20;58.70;;;;;;5023425;28;20029;-47
2021/07/31 10:04:05;;;;;;;3.67;0.80;;;24.20;58.40;;;;;;5023409;28;20030;-45
2021/07/31 10:06:31;;;;;;;2.38;0.82;;;24.10;58.30;;;;;;5020261;28;20052;-43
2021/07/31 10:08:58;;;;;;;1.42;0.82;;;24.10;58.10;;;;;;5027780;28;20057;-43
2021/07/31 10:11:24;;;;;;;1.17;0.75;;;24.20;58.20;;;;;;5027318;28;20083;-45
2021/07/31 10:13:50;;;;;;;1.13;0.65;;;24.10;58.00;;;;;;5010599;28;20558;-42
2021/07/31 10:16:16;;;;;;;0.55;0.47;;;24.00;58.10;;;;;;5011919;28;20434;-42
2021/07/31 10:19:01;;;;;;;1.17;0.63;;;24.00;58.20;;;;;;5027447;28;20514;-47
2021/07/31 10:21:27;;;;;;;1.20;0.65;;;24.00;58.30;;;;;;5027746;28;20094;-43
2021/07/31 10:24:03;;;;;;;1.88;0.50;;;24.00;57.60;;;;;;5022171;28;20033;-45
2021/07/31 10:26:29;;;;;;;1.35;0.70;;;24.00;58.00;;;;;;5038834;28;20076;-43
2021/07/31 10:29:10;;;;;;;1.35;0.60;;;24.00;57.70;;;;;;5031953;28;20533;-44
2021/07/31 10:31:35;;;;;;;1.40;0.50;;;24.00;57.90;;;;;;5015076;28;20504;-43
2021/07/31 10:34:01;;;;;;;1.52;0.73;;;24.00;58.00;;;;;;5030270;28;20032;-44
2021/07/31 10:36:29;;;;;;;1.75;0.77;;;24.00;57.90;;;;;;5013356;28;20484;-47
2021/07/31 10:38:55;;;;;;;0.70;0.50;;;24.00;57.90;;;;;;5033016;28;20503;-44
2021/07/31 10:41:56;;;;;;;1.05;0.60;;;24.00;57.90;;;;;;5031414;28;20108;-39
2021/07/31 10:44:22;;;;;;;1.70;0.90;;;24.00;57.80;;;;;;5033005;28;20036;-41
2021/07/31 10:46:48;;;;;;;0.68;0.60;;;24.00;57.80;;;;;;5029109;28;20041;-41
2021/07/31 10:49:35;;;;;;;0.63;0.60;;;24.00;57.90;;;;;;5030589;28;20029;-41
2021/07/31 10:52:01;;;;;;;3.20;0.80;;;24.00;58.00;;;;;;5029136;28;20524;-40
2021/07/31 10:54:59;;;;;;;0.70;0.60;;;24.00;57.90;;;;;;5028726;28;20022;-40
2021/07/31 10:57:53;;;;;;;0.60;0.50;;;24.00;58.00;;;;;;5014375;28;20192;-40
2021/07/31 11:00:34;;;;;;;1.48;0.60;;;24.00;57.80;;;;;;5011640;28;20046;-40
2021/07/31 11:03:03;;;;;;;0.40;0.40;;;24.00;57.90;;;;;;5029839;28;20120;-41
2021/07/31 11:05:41;;;;;;;0.95;0.50;;;24.00;57.70;;;;;;5031445;28;20049;-41
2021/07/31 11:08:06;;;;;;;0.77;0.70;;;24.00;57.90;;;;;;5014585;28;20051;-43
2021/07/31 11:10:34;;;;;;;1.02;0.68;;;24.00;57.90;;;;;;5029330;28;20021;-39
2021/07/31 11:13:00;;;;;;;1.13;0.40;;;24.00;57.90;;;;;;5029555;28;20044;-41
2021/07/31 11:15:25;;;;;;;1.05;0.55;;;24.00;58.00;;;;;;5029007;28;20018;-41
2021/07/31 11:17:55;;;;;;;1.38;0.60;;;24.00;58.00;;;;;;5032836;28;20522;-39
2021/07/31 11:20:36;;;;;;;2.20;0.63;;;24.00;57.90;;;;;;5031715;28;20048;-39
2021/07/31 11:23:07;;;;;;;0.65;0.50;;;23.90;58.00;;;;;;5027573;28;20140;-38
2021/07/31 11:25:33;;;;;;;0.70;0.70;;;24.00;58.00;;;;;;5027416;28;20483;-41
2021/07/31 11:28:08;;;;;;;0.63;0.63;;;24.00;58.00;;;;;;5029652;28;20040;-42
2021/07/31 11:30:44;;;;;;;0.47;0.40;;;24.00;58.00;;;;;;5027517;28;20081;-41
2021/07/31 11:33:20;;;;;;;1.70;0.45;;;24.00;58.00;;;;;;5029056;28;20052;-38
2021/07/31 11:35:50;;;;;;;0.65;0.30;;;24.00;58.00;;;;;;5029150;28;20026;-39
2021/07/31 11:38:37;;;;;;;0.77;0.55;;;24.00;58.50;;;;;;5028839;28;20025;-37
2021/07/31 11:41:10;;;;;;;1.48;0.50;;;24.00;57.90;;;;;;5028889;28;20025;-40
2021/07/31 11:43:49;;;;;;;0.87;0.47;;;24.00;58.40;;;;;;5011920;28;20040;-39
2021/07/31 11:46:23;;;;;;;0.63;0.40;;;24.00;57.80;;;;;;5013821;28;20757;-41
2021/07/31 11:48:49;;;;;;;0.63;0.57;;;24.00;57.70;;;;;;5030564;28;20026;-41
2021/07/31 11:51:15;;;;;;;0.60;0.50;;;24.00;57.60;;;;;;5029638;28;20026;-40
2021/07/31 11:53:40;;;;;;;0.43;0.30;;;24.00;57.80;;;;;;5031952;28;20507;-38
2021/07/31 11:56:10;;;;;;;0.60;0.60;;;24.00;58.40;;;;;;5027947;28;20376;-39
2021/07/31 11:58:36;;;;;;;0.43;0.40;;;24.00;57.70;;;;;;5027819;28;20034;-39
2021/07/31 12:01:02;;;;;;;1.10;0.47;;;24.00;57.70;;;;;;5027626;28;20032;-43
2021/07/31 12:03:46;;;;;;;0.40;0.30;;;24.00;57.80;;;;;;5025809;28;20385;-40
2021/07/31 12:06:34;;;;;;;0.57;0.52;;;24.00;57.80;;;;;;5029082;28;20096;-40
2021/07/31 12:09:04;;;;;;;0.95;0.50;;;23.90;57.70;;;;;;5028454;28;20061;-38
2021/07/31 12:11:39;;;;;;;0.50;0.40;;;23.90;57.80;;;;;;5030575;28;20025;-41
2021/07/31 12:14:34;;;;;;;0.50;0.50;;;23.90;57.70;;;;;;5028707;28;20041;-40
2021/07/31 12:17:24;;;;;;;0.40;0.25;;;23.90;57.70;;;;;;5027355;28;20112;-38
2021/07/31 12:19:57;;;;;;;0.40;0.32;;;23.80;58.00;;;;;;5025165;28;20095;-40
2021/07/31 12:22:27;;;;;;;0.55;0.50;;;23.80;57.90;;;;;;5026648;28;20104;-40
2021/07/31 12:25:08;;;;;;;0.50;0.40;;;23.90;57.90;;;;;;5028425;28;20065;-37
2021/07/31 12:28:05;;;;;;;0.35;0.30;;;23.90;57.80;;;;;;5028350;28;20060;-38
2021/07/31 12:30:39;;;;;;;1.95;0.50;;;23.90;57.80;;;;;;5013866;28;20029;-40
2021/07/31 12:33:04;;;;;;;0.38;0.30;;;23.90;57.80;;;;;;5029466;28;20033;-38
2021/07/31 12:35:37;;;;;;;0.60;0.60;;;23.90;57.80;;;;;;5030272;28;20399;-40
2021/07/31 12:38:07;;;;;;;0.50;0.40;;;23.90;57.70;;;;;;5027918;28;20033;-42
2021/07/31 12:40:33;;;;;;;1.00;0.40;;;23.90;57.80;;;;;;5027263;28;20032;-40
2021/07/31 12:42:59;;;;;;;0.40;0.40;;;23.90;57.70;;;;;;5027277;28;20400;-41
2021/07/31 12:45:28;;;;;;;0.40;0.40;;;23.90;57.70;;;;;;5029538;28;20018;-40
2021/07/31 12:47:54;;;;;;;0.43;0.40;;;23.90;57.70;;;;;;5030662;28;20106;-40